Time;durP1;ratioP1;P1;durP2;ratioP2;P2;SDS_P1;SDS_P2;PMS_P1;PMS_P2;Temp;Humidity;BMP_temperature;BMP_pressure;BME280_temperature;BME280_humidity;BME280_pressure;Samples;Min_cycle;Max_cycle;Signal;HPM_P1;HPM_P2
2021/08/02 00:00:42;;;;;;;;;;;14.80;99.90;;;;;;5043462;28;19920;-75
2021/08/02 00:03:13;;;;;;;;;;;14.80;99.90;;;;;;5042756;28;19913;-74
2021/08/02 00:05:39;;;;;;;;;;;14.80;99.90;;;;;;5029781;28;19917;-73
2021/08/02 00:08:04;;;;;;;;;;;14.90;99.90;;;;;;5030398;28;19920;-74
2021/08/02 00:10:32;;;;;;;;;;;14.90;99.90;;;;;;5044948;28;19913;-74
2021/08/02 00:13:00;;;;;;;;;;;14.90;99.90;;;;;;5029084;28;19927;-76
2021/08/02 00:15:26;;;;;;;;;;;14.90;99.90;;;;;;5033085;28;20431;-74
2021/08/02 00:17:52;;;;;;;;;;;14.90;99.90;;;;;;5049699;28;20284;-74
2021/08/02 00:20:19;;;;;;;;;;;14.90;99.90;;;;;;5051646;28;19916;-75
2021/08/02 00:22:45;;;;;;;;;;;14.90;99.90;;;;;;5052503;28;19912;-74
2021/08/02 00:25:11;;;;;;;;;;;14.90;99.90;;;;;;5033168;28;19919;-74
2021/08/02 00:27:37;;;;;;;;;;;14.90;99.90;;;;;;5048729;28;20448;-74
2021/08/02 00:30:03;;;;;;;;;;;14.90;99.90;;;;;;5049067;28;20019;-74
2021/08/02 00:32:28;;;;;;;;;;;14.90;99.90;;;;;;5051545;28;19921;-74
2021/08/02 00:34:54;;;;;;;;;;;14.90;99.90;;;;;;5032235;28;19917;-74
2021/08/02 00:37:43;;;;;;;;;;;14.90;99.90;;;;;;5029710;28;19912;-75
2021/08/02 00:40:11;;;;;;;;;;;14.90;99.90;;;;;;5018387;28;19929;-75
2021/08/02 00:42:55;;;;;;;;;;;14.90;99.90;;;;;;5051190;28;19966;-74
2021/08/02 00:45:21;;;;;;;;;;;15.00;99.90;;;;;;5049191;28;19912;-75
2021/08/02 00:47:59;;;;;;;;;;;15.00;99.90;;;;;;5049176;28;19984;-74
2021/08/02 00:50:26;;;;;;;;;;;15.00;99.90;;;;;;5051135;28;19913;-74
2021/08/02 00:52:55;;;;;;;;;;;15.00;99.90;;;;;;5049213;28;19913;-75
2021/08/02 00:55:21;;;;;;;;;;;15.00;99.90;;;;;;5051312;28;20416;-74
2021/08/02 00:57:48;;;;;;;;;;;15.00;99.90;;;;;;5033365;28;19999;-74
2021/08/02 01:00:15;;;;;;;;;;;15.00;99.90;;;;;;5048900;28;19916;-74
2021/08/02 01:02:41;;;;;;;;;;;15.00;99.90;;;;;;5033514;28;20033;-75
2021/08/02 01:05:08;;;;;;;;;;;15.00;99.90;;;;;;5049038;28;19919;-74
2021/08/02 01:07:37;;;;;;;;;;;15.00;99.90;;;;;;5034059;28;19921;-74
2021/08/02 01:10:02;;;;;;;;;;;15.10;99.90;;;;;;5049875;28;19920;-74
2021/08/02 01:12:29;;;;;;;;;;;15.20;99.90;;;;;;5044358;28;19921;-74
2021/08/02 01:14:55;;;;;;;;;;;15.10;99.90;;;;;;5028228;28;19913;-75
2021/08/02 01:17:21;;;;;;;;;;;15.10;99.90;;;;;;5025698;28;19913;-74
2021/08/02 01:19:47;;;;;;;;;;;15.10;99.90;;;;;;5050998;28;19920;-74
2021/08/02 01:22:27;;;;;;;;;;;15.10;99.90;;;;;;5046419;28;19917;-75
2021/08/02 01:24:53;;;;;;;;;;;15.00;99.90;;;;;;5044914;28;19959;-75
2021/08/02 01:27:37;;;;;;;;;;;15.00;99.90;;;;;;5027872;28;19917;-74
2021/08/02 01:30:11;;;;;;;;;;;15.00;99.90;;;;;;5045827;28;20012;-75
2021/08/02 01:32:36;;;;;;;;;;;15.00;99.90;;;;;;5028169;28;19913;-75
2021/08/02 01:35:02;;;;;;;;;;;15.00;99.90;;;;;;5051075;28;20046;-75
2021/08/02 01:37:28;;;;;;;;;;;15.00;99.90;;;;;;5026445;28;19931;-74
2021/08/02 01:39:54;;;;;;;;;;;15.00;99.90;;;;;;5029319;28;20432;-75
2021/08/02 01:42:20;;;;;;;;;;;15.00;99.90;;;;;;5030561;28;19913;-75
2021/08/02 01:44:45;;;;;;;;;;;15.00;99.90;;;;;;5047605;28;20327;-76
2021/08/02 01:47:28;;;;;;;;;;;15.00;99.90;;;;;;5029591;28;20019;-75
2021/08/02 01:49:58;;;;;;;;;;;15.00;99.90;;;;;;5030218;28;19936;-76
2021/08/02 01:52:26;;;;;;;;;;;15.00;99.90;;;;;;5051884;28;19919;-75
2021/08/02 01:54:55;;;;;;;;;;;15.00;99.90;;;;;;5033199;28;19952;-76
2021/08/02 01:57:33;;;;;;;;;;;15.00;99.90;;;;;;5046736;28;20288;-75
2021/08/02 02:00:06;;;;;;;;;;;15.00;99.90;;;;;;5031625;28;19925;-75
2021/08/02 02:02:33;;;;;;;;;;;15.00;99.90;;;;;;5056306;28;19912;-75
2021/08/02 02:05:05;;;;;;;;;;;15.00;99.90;;;;;;5039502;28;19916;-75
2021/08/02 02:07:34;;;;;;;;;;;15.00;99.90;;;;;;5053591;28;19913;-76
2021/08/02 02:10:01;;;;;;;;;;;15.00;99.90;;;;;;5050928;28;19913;-75
2021/08/02 02:12:27;;;;;;;;;;;15.00;99.90;;;;;;5041471;28;19948;-75
2021/08/02 02:14:54;;;;;;;;;;;15.00;99.90;;;;;;5030332;28;19948;-75
2021/08/02 02:17:21;;;;;;;;;;;15.00;99.90;;;;;;5050285;28;20327;-74
2021/08/02 02:19:48;;;;;;;;;;;15.10;99.90;;;;;;5048595;28;20361;-74
2021/08/02 02:22:14;;;;;;;;;;;15.10;99.90;;;;;;5043309;28;20365;-76
2021/08/02 02:24:40;;;;;;;;;;;15.10;99.90;;;;;;5026825;28;20038;-75
2021/08/02 02:27:06;;;;;;;;;;;15.10;99.90;;;;;;5027019;28;19913;-76
2021/08/02 02:29:33;;;;;;;;;;;15.10;99.90;;;;;;5039415;28;19920;-75
2021/08/02 02:31:59;;;;;;;;;;;15.10;99.90;;;;;;5023716;28;19916;-75
2021/08/02 02:34:24;;;;;;;;;;;15.10;99.90;;;;;;5024115;28;19921;-74
2021/08/02 02:36:51;;;;;;;;;;;15.10;99.90;;;;;;5045485;28;19913;-75
2021/08/02 02:39:17;;;;;;;;;;;15.00;99.90;;;;;;5030944;28;20365;-75
2021/08/02 02:41:43;;;;;;;;;;;15.00;99.90;;;;;;5028471;28;20008;-75
2021/08/02 02:44:09;;;;;;;;;;;15.00;99.90;;;;;;5042480;28;19920;-74
2021/08/02 02:46:34;;;;;;;;;;;15.00;99.90;;;;;;5042628;28;19950;-74
2021/08/02 02:49:00;;;;;;;;;;;14.90;99.90;;;;;;5042550;28;19913;-75
2021/08/02 02:51:26;;;;;;;;;;;14.90;99.90;;;;;;5050865;28;19963;-75
2021/08/02 02:53:53;;;;;;;;;;;14.80;99.90;;;;;;5036119;28;19913;-75
2021/08/02 02:56:19;;;;;;;;;;;14.80;99.90;;;;;;5047738;28;20270;-74
2021/08/02 02:58:45;;;;;;;;;;;14.80;99.90;;;;;;5046388;28;19971;-74
2021/08/02 03:01:13;;;;;;;;;;;14.80;99.90;;;;;;5050512;28;20288;-76
2021/08/02 03:03:42;;;;;;;;;;;14.70;99.90;;;;;;5053162;28;20276;-75
2021/08/02 03:06:08;;;;;;;;;;;14.70;99.90;;;;;;5048260;28;19970;-75
2021/08/02 03:08:34;;;;;;;;;;;14.60;99.90;;;;;;5047380;28;19992;-74
2021/08/02 03:11:01;;;;;;;;;;;14.60;99.90;;;;;;5048400;28;19913;-75
2021/08/02 03:13:26;;;;;;;;;;;14.60;99.90;;;;;;5028799;28;20055;-74
2021/08/02 03:15:52;;;;;;;;;;;14.50;99.90;;;;;;5032267;28;20443;-75
2021/08/02 03:18:18;;;;;;;;;;;14.50;99.90;;;;;;5047947;28;19921;-75
2021/08/02 03:20:44;;;;;;;;;;;14.50;99.90;;;;;;5043188;28;19921;-74
2021/08/02 03:23:12;;;;;;;;;;;14.50;99.90;;;;;;5030031;28;19920;-75
2021/08/02 03:25:44;;;;;;;;;;;14.50;99.90;;;;;;5050568;28;19962;-74
2021/08/02 03:28:09;;;;;;;;;;;14.40;99.90;;;;;;5050089;28;19913;-74
2021/08/02 03:30:36;;;;;;;;;;;14.40;99.90;;;;;;5050872;28;19920;-74
2021/08/02 03:33:02;;;;;;;;;;;14.40;99.90;;;;;;5024792;28;20369;-75
2021/08/02 03:35:29;;;;;;;;;;;14.30;99.90;;;;;;5049478;28;19932;-74
2021/08/02 03:37:55;;;;;;;;;;;14.30;99.90;;;;;;5048009;28;19921;-76
2021/08/02 03:40:21;;;;;;;;;;;14.30;99.90;;;;;;5030476;28;19975;-75
2021/08/02 03:42:47;;;;;;;;;;;14.20;99.90;;;;;;5048490;28;19913;-75
2021/08/02 03:45:13;;;;;;;;;;;14.20;99.90;;;;;;5053004;28;19936;-75
2021/08/02 03:47:40;;;;;;;;;;;14.20;99.90;;;;;;5050725;28;19917;-74
2021/08/02 03:50:06;;;;;;;;;;;14.20;99.90;;;;;;5049313;28;20093;-76
2021/08/02 03:52:32;;;;;;;;;;;14.20;99.90;;;;;;5045989;28;19920;-74
2021/08/02 03:54:57;;;;;;;;;;;14.20;99.90;;;;;;5051071;28;20365;-74
2021/08/02 03:57:24;;;;;;;;;;;14.20;99.90;;;;;;5044910;28;19913;-75
2021/08/02 03:59:50;;;;;;;;;;;14.20;99.90;;;;;;5046474;28;19917;-74
2021/08/02 04:02:15;;;;;;;;;;;14.10;99.90;;;;;;5045800;28;20285;-74
2021/08/02 04:04:41;;;;;;;;;;;14.10;99.90;;;;;;5030069;28;19916;-75
2021/08/02 04:07:06;;;;;;;;;;;14.00;99.90;;;;;;5030879;28;20031;-75
2021/08/02 04:09:32;;;;;;;;;;;14.00;99.90;;;;;;5050023;28;19912;-74
2021/08/02 04:11:58;;;;;;;;;;;14.00;99.90;;;;;;5052577;28;19951;-75
2021/08/02 04:14:23;;;;;;;;;;;13.90;99.90;;;;;;5023857;28;19928;-74
2021/08/02 04:16:49;;;;;;;;;;;13.90;99.90;;;;;;5031851;28;19913;-74
2021/08/02 04:19:14;;;;;;;;;;;13.90;99.90;;;;;;5029177;28;20387;-75
2021/08/02 04:21:40;;;;;;;;;;;13.90;99.90;;;;;;5027893;28;19916;-75
2021/08/02 04:24:05;;;;;;;;;;;13.90;99.90;;;;;;5032655;28;20011;-75
2021/08/02 04:26:31;;;;;;;;;;;13.80;99.90;;;;;;5030682;28;19959;-74
2021/08/02 04:28:56;;;;;;;;;;;13.80;99.90;;;;;;5034200;28;19920;-75
2021/08/02 04:31:26;;;;;;;;;;;13.80;99.90;;;;;;5047720;28;19913;-74
2021/08/02 04:33:52;;;;;;;;;;;13.80;99.90;;;;;;5049323;28;19913;-75
2021/08/02 04:36:18;;;;;;;;;;;13.70;99.90;;;;;;5034969;28;20438;-75
2021/08/02 04:38:43;;;;;;;;;;;13.70;99.90;;;;;;5029831;28;19932;-74
2021/08/02 04:41:09;;;;;;;;;;;13.80;99.90;;;;;;5050248;28;20255;-76
2021/08/02 04:43:35;;;;;;;;;;;13.80;99.90;;;;;;5051714;28;20357;-75
2021/08/02 04:46:01;;;;;;;;;;;13.90;99.90;;;;;;5052348;28;19913;-74
2021/08/02 04:48:26;;;;;;;;;;;13.90;99.90;;;;;;5035670;28;19913;-74
2021/08/02 04:50:52;;;;;;;;;;;13.90;99.90;;;;;;5033940;28;19974;-75
2021/08/02 04:53:18;;;;;;;;;;;13.90;99.90;;;;;;5049974;28;19917;-74
2021/08/02 04:55:43;;;;;;;;;;;14.00;99.90;;;;;;5052892;28;19924;-74
2021/08/02 04:58:09;;;;;;;;;;;14.00;99.90;;;;;;5050337;28;20249;-75
2021/08/02 05:00:34;;;;;;;;;;;14.10;99.90;;;;;;5051018;28;19967;-74
2021/08/02 05:03:01;;;;;;;;;;;14.10;99.90;;;;;;5053831;28;19959;-75
2021/08/02 05:05:26;;;;;;;;;;;14.10;99.90;;;;;;5053241;28;19921;-74
2021/08/02 05:07:52;;;;;;;;;;;14.10;99.90;;;;;;5052941;28;19920;-75
2021/08/02 05:10:18;;;;;;;;;;;14.20;99.90;;;;;;5034727;28;20004;-74
2021/08/02 05:12:43;;;;;;;;;;;14.20;99.90;;;;;;5034516;28;19975;-75
2021/08/02 05:15:10;;;;;;;;;;;14.20;99.90;;;;;;5031675;28;19920;-75
2021/08/02 05:17:35;;;;;;;;;;;14.30;99.90;;;;;;5034450;28;20274;-75
2021/08/02 05:20:01;;;;;;;;;;;14.30;99.90;;;;;;5050705;28;19916;-74
2021/08/02 05:22:27;;;;;;;;;;;14.30;99.90;;;;;;5052438;28;19916;-74
2021/08/02 05:24:52;;;;;;;;;;;14.40;99.90;;;;;;5034669;28;20007;-74
2021/08/02 05:27:18;;;;;;;;;;;14.40;99.90;;;;;;5032519;28;19921;-75
2021/08/02 05:29:43;;;;;;;;;;;14.50;99.90;;;;;;5052850;28;20470;-74
2021/08/02 05:32:09;;;;;;;;;;;14.50;99.90;;;;;;5033934;28;19913;-75
2021/08/02 05:34:34;;;;;;;;;;;14.50;99.90;;;;;;5030176;28;19912;-75
2021/08/02 05:37:00;;;;;;;;;;;14.60;99.90;;;;;;5051683;28;19952;-75
2021/08/02 05:39:25;;;;;;;;;;;14.70;99.90;;;;;;5050131;28;19928;-75
2021/08/02 05:41:51;;;;;;;;;;;14.80;99.90;;;;;;5052501;28;19952;-77
2021/08/02 05:44:16;;;;;;;;;;;14.80;99.90;;;;;;5034325;28;19920;-75
2021/08/02 05:46:43;;;;;;;;;;;14.90;99.90;;;;;;5036118;28;20338;-75
2021/08/02 05:49:09;;;;;;;;;;;14.90;99.90;;;;;;5052741;28;19921;-75
2021/08/02 05:51:34;;;;;;;;;;;15.00;99.90;;;;;;5053524;28;19935;-74
2021/08/02 05:54:00;;;;;;;;;;;15.00;99.90;;;;;;5036140;28;19999;-75
2021/08/02 05:56:25;;;;;;;;;;;15.20;99.90;;;;;;5053309;28;20262;-76
2021/08/02 05:58:51;;;;;;;;;;;15.40;99.90;;;;;;5052836;28;19924;-77
2021/08/02 06:01:16;;;;;;;;;;;15.50;99.90;;;;;;5039719;28;20341;-75
2021/08/02 06:03:42;;;;;;;;;;;15.60;99.90;;;;;;5056603;28;19913;-76
2021/08/02 06:06:08;;;;;;;;;;;15.60;99.90;;;;;;5038200;28;20376;-76
2021/08/02 06:08:37;;;;;;;;;;;15.70;99.90;;;;;;5039812;28;19920;-76
2021/08/02 06:11:02;;;;;;;;;;;15.90;99.90;;;;;;5056386;28;20479;-76
2021/08/02 06:13:28;;;;;;;;;;;16.10;99.90;;;;;;5055854;28;19963;-75
2021/08/02 06:15:54;;;;;;;;;;;16.10;99.90;;;;;;5035519;28;19913;-75
2021/08/02 06:18:19;;;;;;;;;;;16.20;99.90;;;;;;5035489;28;19913;-75
2021/08/02 06:20:44;;;;;;;;;;;16.30;99.90;;;;;;5031567;28;19917;-75
2021/08/02 06:23:10;;;;;;;;;;;16.20;99.90;;;;;;5030892;28;19917;-75
2021/08/02 06:25:35;;;;;;;;;;;16.60;99.90;;;;;;5031393;28;19916;-76
2021/08/02 06:28:01;;;;;;;;;;;17.70;99.90;;;;;;5037563;28;19959;-76
2021/08/02 06:30:26;;;;;;;;;;;17.90;99.90;;;;;;5034767;28;19949;-77
2021/08/02 06:32:52;;;;;;;;;;;17.70;99.90;;;;;;5038749;28;19913;-78
2021/08/02 06:35:17;;;;;;;;;;;17.50;99.90;;;;;;5038064;28;19918;-85
2021/08/02 06:37:43;;;;;;;;;;;17.10;99.90;;;;;;5035193;28;19921;-75
2021/08/02 06:40:12;;;;;;;;;;;16.90;99.90;;;;;;5034894;28;20012;-76
2021/08/02 06:42:37;;;;;;;;;;;17.40;99.90;;;;;;5035435;28;19917;-75
2021/08/02 06:45:03;;;;;;;;;;;18.40;99.90;;;;;;5034126;28;20262;-75
2021/08/02 06:47:29;;;;;;;;;;;18.60;99.90;;;;;;5034204;28;19913;-75
2021/08/02 06:49:54;;;;;;;;;;;18.50;99.90;;;;;;5035770;28;19913;-75
2021/08/02 06:52:20;;;;;;;;;;;19.20;99.90;;;;;;5032323;28;20011;-75
2021/08/02 06:54:45;;;;;;;;;;;20.30;99.90;;;;;;5036272;28;19936;-75
2021/08/02 06:57:11;;;;;;;;;;;20.90;99.90;;;;;;5034323;28;19920;-75
2021/08/02 06:59:36;;;;;;;;;;;21.50;99.90;;;;;;5034571;28;19939;-76
2021/08/02 07:02:02;;;;;;;;;;;21.80;99.90;;;;;;5031417;28;19920;-74
2021/08/02 07:04:27;;;;;;;;;;;21.50;99.90;;;;;;5026115;28;19924;-79
2021/08/02 07:06:53;;;;;;;;;;;20.70;99.90;;;;;;5036178;28;19956;-78
2021/08/02 07:09:18;;;;;;;;;;;20.70;99.90;;;;;;5056288;28;19913;-79
2021/08/02 07:11:44;;;;;;;;;;;21.20;99.90;;;;;;5032247;28;19920;-78
2021/08/02 07:14:09;;;;;;;;;;;21.50;99.90;;;;;;5026186;28;19917;-78
2021/08/02 07:16:35;;;;;;;;;;;21.60;99.90;;;;;;5029936;28;19917;-78
2021/08/02 07:19:01;;;;;;;;;;;21.60;99.90;;;;;;5022511;28;19924;-78
2021/08/02 07:21:26;;;;;;;;;;;21.30;99.90;;;;;;5033978;28;19917;-78
2021/08/02 07:23:52;;;;;;;;;;;20.60;99.90;;;;;;5053243;28;19914;-79
2021/08/02 07:26:17;;;;;;;;;;;19.80;99.90;;;;;;5030717;28;19921;-79
2021/08/02 07:28:43;;;;;;;;;;;19.20;99.90;;;;;;5038519;28;20384;-78
2021/08/02 07:31:09;;;;;;;;;;;19.20;99.90;;;;;;5035176;28;19914;-79
2021/08/02 07:33:35;;;;;;;;;;;18.70;99.90;;;;;;5041938;28;20020;-78
2021/08/02 07:36:00;;;;;;;;;;;18.40;99.90;;;;;;5036913;28;20023;-79
2021/08/02 07:38:26;;;;;;;;;;;18.40;99.90;;;;;;5037621;28;19959;-79
2021/08/02 07:40:52;;;;;;;;;;;18.40;99.90;;;;;;5036455;28;19921;-79
2021/08/02 07:43:17;;;;;;;;;;;18.30;99.90;;;;;;5038346;28;19917;-79
2021/08/02 07:45:43;;;;;;;;;;;18.30;99.90;;;;;;5044735;28;19917;-79
2021/08/02 07:48:08;;;;;;;;;;;18.40;99.90;;;;;;5042094;28;19913;-79
2021/08/02 07:50:34;;;;;;;;;;;18.50;99.90;;;;;;5030557;28;19920;-78
2021/08/02 07:52:59;;;;;;;;;;;18.50;99.90;;;;;;5038436;28;19917;-79
2021/08/02 07:55:25;;;;;;;;;;;18.50;99.90;;;;;;5029152;28;19921;-79
2021/08/02 07:57:50;;;;;;;;;;;18.30;99.90;;;;;;5039826;28;19909;-79
2021/08/02 08:00:17;;;;;;;;;;;18.00;99.90;;;;;;5030325;28;19913;-79
2021/08/02 08:02:46;;;;;;;;;;;17.60;99.90;;;;;;5041352;28;19916;-79
2021/08/02 08:05:12;;;;;;;;;;;17.20;99.90;;;;;;5038539;28;19969;-79
2021/08/02 08:07:41;;;;;;;;;;;17.00;99.90;;;;;;5043495;28;19924;-79
2021/08/02 08:10:07;;;;;;;;;;;16.90;99.90;;;;;;5041244;28;19920;-79
2021/08/02 08:12:32;;;;;;;;;;;16.90;99.90;;;;;;5042050;28;20299;-79
2021/08/02 08:14:58;;;;;;;;;;;16.80;99.90;;;;;;5034573;28;19913;-78
2021/08/02 08:17:23;;;;;;;;;;;16.70;99.90;;;;;;5039101;28;20423;-78
2021/08/02 08:19:49;;;;;;;;;;;16.70;99.90;;;;;;5036503;28;20539;-78
2021/08/02 08:22:14;;;;;;;;;;;16.60;99.90;;;;;;5038189;28;20011;-79
2021/08/02 08:24:40;;;;;;;;;;;16.70;99.90;;;;;;5039790;28;19913;-78
2021/08/02 08:27:05;;;;;;;;;;;16.70;99.90;;;;;;5038320;28;19949;-79
2021/08/02 08:29:31;;;;;;;;;;;16.70;99.90;;;;;;5037036;28;19964;-79
2021/08/02 08:31:56;;;;;;;;;;;16.60;99.90;;;;;;5038648;28;20388;-79
2021/08/02 08:34:22;;;;;;;;;;;16.60;99.90;;;;;;5037327;28;19913;-78
2021/08/02 08:36:47;;;;;;;;;;;16.70;99.90;;;;;;5050688;28;19917;-78
2021/08/02 08:39:13;;;;;;;;;;;16.70;99.90;;;;;;5036213;28;21385;-79
2021/08/02 08:41:38;;;;;;;;;;;16.80;99.90;;;;;;5035818;28;19967;-78
2021/08/02 08:44:05;;;;;;;;;;;16.90;99.90;;;;;;5036967;28;19948;-79
2021/08/02 08:46:30;;;;;;;;;;;16.90;99.90;;;;;;5035464;28;19913;-79
2021/08/02 08:48:56;;;;;;;;;;;17.00;99.90;;;;;;5036778;28;20383;-79
2021/08/02 08:51:21;;;;;;;;;;;17.10;99.90;;;;;;5037457;28;19936;-78
2021/08/02 08:53:47;;;;;;;;;;;17.20;99.90;;;;;;5034782;28;19921;-78
2021/08/02 08:56:16;;;;;;;;;;;17.40;99.90;;;;;;5035735;28;19913;-78
2021/08/02 08:58:42;;;;;;;;;;;17.40;99.90;;;;;;5037262;28;19924;-78
2021/08/02 09:01:07;;;;;;;;;;;17.40;99.90;;;;;;5022774;28;20309;-78
2021/08/02 09:03:33;;;;;;;;;;;17.50;99.90;;;;;;5037199;28;19913;-79
2021/08/02 09:06:03;;;;;;;;;;;17.60;99.90;;;;;;5028447;28;20289;-76
2021/08/02 09:08:28;;;;;;;;;;;17.80;99.90;;;;;;5031096;28;20007;-76
2021/08/02 09:11:00;;;;;;;;;;;18.00;99.90;;;;;;5026891;28;19979;-76
2021/08/02 09:13:30;;;;;;;;;;;18.40;99.90;;;;;;5024991;28;19917;-75
2021/08/02 09:15:57;;;;;;;;;;;18.80;99.90;;;;;;5024243;28;20348;-75
2021/08/02 09:18:23;;;;;;;;;;;19.00;99.90;;;;;;5028079;28;20034;-77
2021/08/02 09:20:59;;;;;;;;;;;19.40;99.90;;;;;;5031818;28;20567;-76
2021/08/02 09:23:24;;;;;;;;;;;20.10;99.90;;;;;;5032312;28;20051;-76
2021/08/02 09:25:51;;;;;;;;;;;20.60;99.90;;;;;;5032113;28;19999;-77
2021/08/02 09:28:18;;;;;;;;;;;20.60;99.90;;;;;;5052525;28;20308;-77
2021/08/02 09:31:03;;;;;;;;;;;20.30;99.90;;;;;;5043561;28;20049;-76
2021/08/02 09:33:41;;;;;;;;;;;20.30;99.90;;;;;;5048727;28;19917;-76
2021/08/02 09:36:07;;;;;;;;;;;20.20;99.90;;;;;;5035962;28;19912;-76
2021/08/02 09:38:32;;;;;;;;;;;19.90;99.90;;;;;;5049767;28;20387;-76
2021/08/02 09:40:58;;;;;;;;;;;19.70;99.90;;;;;;5055422;28;19923;-77
2021/08/02 09:43:24;;;;;;;;;;;19.20;99.90;;;;;;5049996;28;19920;-76
2021/08/02 09:45:51;;;;;;;;;;;19.00;99.90;;;;;;5054812;28;19913;-76
2021/08/02 09:48:18;;;;;;;;;;;18.90;99.90;;;;;;5039903;28;19913;-76
2021/08/02 09:50:44;;;;;;;;;;;19.00;99.90;;;;;;5045719;28;19913;-76
2021/08/02 09:53:12;;;;;;;;;;;18.90;99.90;;;;;;5055694;28;20004;-76
2021/08/02 09:55:39;;;;;;;;;;;18.80;99.90;;;;;;5038925;28;19913;-76
2021/08/02 09:58:05;;;;;;;;;;;18.70;99.90;;;;;;5060448;28;19913;-76
2021/08/02 10:00:32;;;;;;;;;;;18.60;99.90;;;;;;5058467;28;19916;-77
2021/08/02 10:02:59;;;;;;;;;;;18.60;99.90;;;;;;5042678;28;19917;-76
2021/08/02 10:05:25;;;;;;;;;;;18.50;99.90;;;;;;5052965;28;19936;-77
2021/08/02 10:07:50;;;;;;;;;;;18.50;99.90;;;;;;5064539;28;19960;-76
2021/08/02 10:10:18;;;;;;;;;;;18.50;99.90;;;;;;5066838;28;19919;-77
2021/08/02 10:12:45;;;;;;;;;;;18.50;99.90;;;;;;5066019;28;19935;-77
2021/08/02 10:15:12;;;;;;;;;;;18.40;99.90;;;;;;5063350;28;19913;-78
2021/08/02 10:17:38;;;;;;;;;;;18.40;99.90;;;;;;5043517;28;19940;-77
2021/08/02 10:20:04;;;;;;;;;;;18.30;99.90;;;;;;5060175;28;19925;-79
2021/08/02 10:22:30;;;;;;;;;;;18.30;99.90;;;;;;5028927;28;19961;-78
2021/08/02 10:24:56;;;;;;;;;;;18.20;99.90;;;;;;5035487;28;20388;-75
2021/08/02 10:27:25;;;;;;;;;;;18.30;99.90;;;;;;5032057;28;19913;-75
2021/08/02 10:29:51;;;;;;;;;;;18.50;99.90;;;;;;5048538;28;20380;-76
2021/08/02 10:32:20;;;;;;;;;;;18.70;99.90;;;;;;5054049;28;19913;-75
2021/08/02 10:34:50;;;;;;;;;;;18.70;99.90;;;;;;5030372;28;19921;-76
2021/08/02 10:37:27;;;;;;;;;;;18.90;99.90;;;;;;5052804;28;19920;-75
2021/08/02 10:39:59;;;;;;;;;;;19.00;99.90;;;;;;5037075;28;19974;-76
2021/08/02 10:42:25;;;;;;;;;;;19.30;99.90;;;;;;5023751;28;19912;-76
2021/08/02 10:44:54;;;;;;;;;;;19.60;99.90;;;;;;5035845;28;20288;-76
2021/08/02 10:47:20;;;;;;;;;;;19.90;99.90;;;;;;5054641;28;19913;-77
2021/08/02 10:49:52;;;;;;;;;;;20.20;99.90;;;;;;5031523;28;19921;-76
2021/08/02 10:52:27;;;;;;;;;;;20.40;99.90;;;;;;5047764;28;19963;-77
2021/08/02 10:54:53;;;;;;;;;;;20.10;99.90;;;;;;5050292;28;19913;-76
2021/08/02 10:57:19;;;;;;;;;;;19.70;99.90;;;;;;5049374;28;19928;-77
2021/08/02 10:59:44;;;;;;;;;;;19.70;99.90;;;;;;5043783;28;20312;-75
2021/08/02 11:02:10;;;;;;;;;;;19.70;99.90;;;;;;5028075;28;20011;-77
2021/08/02 11:04:36;;;;;;;;;;;19.70;99.90;;;;;;5031308;28;19967;-77
2021/08/02 11:07:02;;;;;;;;;;;19.80;99.90;;;;;;5046066;28;19913;-75
2021/08/02 11:09:28;;;;;;;;;;;19.90;99.90;;;;;;5045536;28;20270;-75
2021/08/02 11:12:13;;;;;;;;;;;19.80;99.90;;;;;;5024699;28;20293;-76
2021/08/02 11:14:46;;;;;;;;;;;19.70;99.90;;;;;;5034824;28;19958;-76
2021/08/02 11:17:18;;;;;;;;;;;19.90;99.90;;;;;;5032339;28;19913;-77
2021/08/02 11:19:44;;;;;;;;;;;19.80;99.90;;;;;;5047195;28;20004;-78
2021/08/02 11:22:10;;;;;;;;;;;19.80;99.90;;;;;;5031739;28;19957;-78
2021/08/02 11:24:37;;;;;;;;;;;19.90;99.90;;;;;;5027440;28;19913;-77
2021/08/02 11:27:10;;;;;;;;;;;19.90;99.90;;;;;;5029513;28;20365;-75
2021/08/02 11:29:36;;;;;;;;;;;19.80;99.90;;;;;;5023604;28;20389;-77
2021/08/02 11:32:11;;;;;;;;;;;19.90;99.90;;;;;;5028863;28;19956;-76
2021/08/02 11:34:41;;;;;;;;;;;19.90;99.90;;;;;;5031648;28;20378;-78
2021/08/02 11:37:09;;;;;;;;;;;20.10;99.90;;;;;;5030388;28;19913;-76
2021/08/02 11:39:36;;;;;;;;;;;20.10;99.90;;;;;;5031363;28;19929;-76
2021/08/02 11:42:01;;;;;;;;;;;19.90;99.90;;;;;;5034166;28;19913;-76
2021/08/02 11:44:27;;;;;;;;;;;19.70;99.90;;;;;;5034981;28;19917;-77
2021/08/02 11:46:53;;;;;;;;;;;19.50;99.90;;;;;;5034770;28;19913;-76
2021/08/02 11:49:19;;;;;;;;;;;19.40;99.90;;;;;;5035270;28;19917;-76
2021/08/02 11:51:45;;;;;;;;;;;19.50;99.90;;;;;;5050779;28;19920;-75
2021/08/02 11:54:20;;;;;;;;;;;19.70;99.90;;;;;;5032815;28;19920;-76
2021/08/02 11:56:47;;;;;;;;;;;19.70;99.90;;;;;;5030541;28;19964;-77
2021/08/02 11:59:19;;;;;;;;;;;19.70;99.90;;;;;;5034726;28;19925;-76
2021/08/02 12:01:46;;;;;;;;;;;19.70;99.90;;;;;;5034776;28;19913;-77
2021/08/02 12:04:11;;;;;;;;;;;19.70;99.90;;;;;;5033455;28;20307;-76
2021/08/02 12:06:46;;;;;;;;;;;19.50;99.90;;;;;;5034431;28;19953;-76
2021/08/02 12:09:11;;;;;;;;;;;19.50;99.90;;;;;;5033029;28;20278;-76
2021/08/02 12:11:41;;;;;;;;;;;19.60;99.90;;;;;;5034659;28;19928;-77
2021/08/02 12:14:06;;;;;;;;;;;19.70;99.90;;;;;;5033164;28;20015;-76
2021/08/02 12:16:33;;;;;;;;;;;19.80;99.90;;;;;;5033275;28;20432;-76
2021/08/02 12:19:03;;;;;;;;;;;19.90;99.90;;;;;;5032881;28;20074;-77
2021/08/02 12:21:31;;;;;;;;;;;19.90;99.90;;;;;;5036382;28;20322;-76
2021/08/02 12:24:10;;;;;;;;;;;19.70;99.90;;;;;;5034548;28;19920;-76
2021/08/02 12:26:37;;;;;;;;;;;19.30;99.90;;;;;;5035988;28;19919;-77
2021/08/02 12:29:03;;;;;;;;;;;19.10;99.90;;;;;;5054344;28;19920;-75
2021/08/02 12:31:28;;;;;;;;;;;19.10;99.90;;;;;;5036505;28;19913;-75
2021/08/02 12:33:54;;;;;;;;;;;19.00;99.90;;;;;;5038030;28;19936;-77
2021/08/02 12:36:20;;;;;;;;;;;18.90;99.90;;;;;;5053554;28;20404;-77
2021/08/02 12:38:50;;;;;;;;;;;19.10;99.90;;;;;;5036469;28;19913;-77
2021/08/02 12:41:16;;;;;;;;;;;19.20;99.90;;;;;;5032420;28;19920;-77
2021/08/02 12:43:44;;;;;;;;;;;19.30;99.90;;;;;;5054831;28;20007;-78
2021/08/02 12:46:10;;;;;;;;;;;19.50;99.90;;;;;;5034193;28;20386;-77
2021/08/02 12:48:36;;;;;;;;;;;19.60;99.90;;;;;;5054227;28;19919;-77
2021/08/02 12:51:01;;;;;;;;;;;19.70;99.90;;;;;;5036921;28;19956;-77
2021/08/02 12:53:27;;;;;;;;;;;19.70;99.90;;;;;;5037335;28;20012;-77
2021/08/02 12:55:52;;;;;;;;;;;19.80;99.90;;;;;;5037318;28;19913;-78
2021/08/02 12:58:18;;;;;;;;;;;19.90;99.90;;;;;;5040343;28;19944;-77
2021/08/02 13:00:44;;;;;;;;;;;19.80;99.90;;;;;;5039349;28;19917;-77
2021/08/02 13:03:09;;;;;;;;;;;19.70;99.90;;;;;;5056188;28;19971;-78
2021/08/02 13:05:35;;;;;;;;;;;19.50;99.90;;;;;;5036819;28;19913;-76
2021/08/02 13:08:00;;;;;;;;;;;19.40;99.90;;;;;;5033436;28;20049;-77
2021/08/02 13:10:31;;;;;;;;;;;19.40;99.90;;;;;;5053009;28;19981;-77
2021/08/02 13:12:56;;;;;;;;;;;19.50;99.90;;;;;;5053633;28;19913;-77
2021/08/02 13:15:22;;;;;;;;;;;19.50;99.90;;;;;;5053163;28;19936;-78
2021/08/02 13:17:48;;;;;;;;;;;19.40;99.90;;;;;;5033059;28;20368;-76
2021/08/02 13:20:13;;;;;;;;;;;19.40;99.90;;;;;;5035770;28;19924;-76
2021/08/02 13:22:45;;;;;;;;;;;19.30;99.90;;;;;;5046184;28;19963;-78
2021/08/02 13:27:56;;;;;;;;;;;19.60;99.90;;;;;;5054498;28;20022;-78
2021/08/02 13:30:22;;;;;;;;;;;19.80;99.90;;;;;;5054604;28;19963;-78
2021/08/02 13:32:47;;;;;;;;;;;20.00;99.90;;;;;;5053814;28;20384;-77
2021/08/02 13:35:13;;;;;;;;;;;19.90;99.90;;;;;;5052837;28;20375;-77
2021/08/02 13:37:39;;;;;;;;;;;20.00;99.90;;;;;;5054601;28;19959;-78
2021/08/02 13:40:04;;;;;;;;;;;20.00;99.90;;;;;;5035228;28;19974;-77
2021/08/02 13:42:30;;;;;;;;;;;20.00;99.90;;;;;;5054498;28;19958;-78
2021/08/02 13:44:55;;;;;;;;;;;20.30;99.90;;;;;;5054054;28;19913;-77
2021/08/02 13:47:21;;;;;;;;;;;20.60;99.90;;;;;;5054484;28;19913;-78
2021/08/02 13:49:47;;;;;;;;;;;20.80;99.90;;;;;;5048352;28;20402;-78
2021/08/02 13:52:13;;;;;;;;;;;20.50;99.90;;;;;;5041359;28;20501;-78
2021/08/02 13:54:38;;;;;;;;;;;20.30;99.90;;;;;;5053961;28;19921;-78
2021/08/02 13:57:04;;;;;;;;;;;20.10;99.90;;;;;;5055359;28;20285;-79
2021/08/02 13:59:29;;;;;;;;;;;20.00;99.90;;;;;;5053468;28;19925;-78
2021/08/02 14:01:55;;;;;;;;;;;20.00;99.90;;;;;;5037091;28;19912;-76
2021/08/02 14:04:20;;;;;;;;;;;20.00;99.90;;;;;;5032100;28;19920;-77
2021/08/02 14:06:46;;;;;;;;;;;19.90;99.90;;;;;;5048406;28;20403;-78
2021/08/02 14:09:11;;;;;;;;;;;19.70;99.90;;;;;;5032945;28;20383;-80
2021/08/02 14:11:38;;;;;;;;;;;19.60;99.90;;;;;;5052873;28;19916;-79
2021/08/02 14:14:03;;;;;;;;;;;19.50;99.90;;;;;;5028346;28;19967;-79
2021/08/02 14:16:30;;;;;;;;;;;19.50;99.90;;;;;;5052502;28;19913;-78